sensor_id;sensor_type;location;lat;lon;timestamp;P1;durP1;ratioP1;P2;durP2;ratioP2
22644;SDS011;11489;50.834;6.752;2024-03-08T00:02:16;36.77;;;19.63;;
22644;SDS011;11489;50.834;6.752;2024-03-08T00:04:42;34.53;;;19.17;;
22644;SDS011;11489;50.834;6.752;2024-03-08T00:07:08;37.33;;;19.90;;
22644;SDS011;11489;50.834;6.752;2024-03-08T00:09:34;36.73;;;19.97;;
22644;SDS011;11489;50.834;6.752;2024-03-08T00:11:59;34.67;;;19.07;;
22644;SDS011;11489;50.834;6.752;2024-03-08T00:14:25;35.73;;;19.73;;
22644;SDS011;11489;50.834;6.752;2024-03-08T00:16:51;41.73;;;19.53;;
22644;SDS011;11489;50.834;6.752;2024-03-08T00:19:19;39.00;;;20.83;;
22644;SDS011;11489;50.834;6.752;2024-03-08T00:21:45;34.10;;;19.57;;
22644;SDS011;11489;50.834;6.752;2024-03-08T00:24:10;35.07;;;19.80;;
22644;SDS011;11489;50.834;6.752;2024-03-08T00:26:37;40.07;;;20.93;;
22644;SDS011;11489;50.834;6.752;2024-03-08T00:29:03;40.70;;;21.37;;
22644;SDS011;11489;50.834;6.752;2024-03-08T00:31:28;35.53;;;20.07;;
22644;SDS011;11489;50.834;6.752;2024-03-08T00:33:56;40.97;;;21.57;;
22644;SDS011;11489;50.834;6.752;2024-03-08T00:36:22;38.83;;;20.67;;
22644;SDS011;11489;50.834;6.752;2024-03-08T00:38:48;37.67;;;21.07;;
22644;SDS011;11489;50.834;6.752;2024-03-08T00:41:13;35.23;;;19.57;;
22644;SDS011;11489;50.834;6.752;2024-03-08T00:43:39;34.87;;;19.33;;
22644;SDS011;11489;50.834;6.752;2024-03-08T00:46:05;39.70;;;20.60;;
22644;SDS011;11489;50.834;6.752;2024-03-08T00:48:30;36.67;;;20.00;;
22644;SDS011;11489;50.834;6.752;2024-03-08T00:50:56;35.03;;;19.83;;
22644;SDS011;11489;50.834;6.752;2024-03-08T00:53:22;35.27;;;18.57;;
22644;SDS011;11489;50.834;6.752;2024-03-08T00:55:48;34.60;;;19.03;;
22644;SDS011;11489;50.834;6.752;2024-03-08T00:58:14;36.00;;;19.90;;
22644;SDS011;11489;50.834;6.752;2024-03-08T01:00:40;38.80;;;19.90;;
22644;SDS011;11489;50.834;6.752;2024-03-08T01:03:06;39.00;;;21.30;;
22644;SDS011;11489;50.834;6.752;2024-03-08T01:05:32;41.27;;;21.83;;
22644;SDS011;11489;50.834;6.752;2024-03-08T01:07:58;36.50;;;20.43;;
22644;SDS011;11489;50.834;6.752;2024-03-08T01:10:24;37.07;;;20.00;;
22644;SDS011;11489;50.834;6.752;2024-03-08T01:12:50;41.27;;;20.67;;
22644;SDS011;11489;50.834;6.752;2024-03-08T01:15:15;38.30;;;20.97;;
22644;SDS011;11489;50.834;6.752;2024-03-08T01:17:41;35.80;;;20.73;;
22644;SDS011;11489;50.834;6.752;2024-03-08T01:20:09;38.27;;;20.97;;
22644;SDS011;11489;50.834;6.752;2024-03-08T01:22:37;36.67;;;20.43;;
22644;SDS011;11489;50.834;6.752;2024-03-08T01:25:04;37.53;;;20.00;;
22644;SDS011;11489;50.834;6.752;2024-03-08T01:27:30;38.17;;;20.17;;
22644;SDS011;11489;50.834;6.752;2024-03-08T01:29:56;36.70;;;19.63;;
22644;SDS011;11489;50.834;6.752;2024-03-08T01:32:23;38.53;;;21.00;;
22644;SDS011;11489;50.834;6.752;2024-03-08T01:34:49;39.50;;;20.47;;
22644;SDS011;11489;50.834;6.752;2024-03-08T01:37:15;38.33;;;21.17;;
22644;SDS011;11489;50.834;6.752;2024-03-08T01:39:41;37.80;;;19.13;;
22644;SDS011;11489;50.834;6.752;2024-03-08T01:42:06;36.17;;;19.03;;
22644;SDS011;11489;50.834;6.752;2024-03-08T01:44:32;34.47;;;17.37;;
22644;SDS011;11489;50.834;6.752;2024-03-08T01:46:58;32.33;;;18.73;;
22644;SDS011;11489;50.834;6.752;2024-03-08T01:49:24;36.87;;;19.07;;
22644;SDS011;11489;50.834;6.752;2024-03-08T01:51:53;35.77;;;18.23;;
22644;SDS011;11489;50.834;6.752;2024-03-08T01:54:21;34.80;;;18.70;;
22644;SDS011;11489;50.834;6.752;2024-03-08T01:56:48;35.63;;;19.37;;
22644;SDS011;11489;50.834;6.752;2024-03-08T01:59:14;34.77;;;18.00;;
22644;SDS011;11489;50.834;6.752;2024-03-08T02:01:41;35.23;;;19.03;;
22644;SDS011;11489;50.834;6.752;2024-03-08T02:04:08;39.00;;;19.03;;
22644;SDS011;11489;50.834;6.752;2024-03-08T02:06:34;37.10;;;19.03;;
22644;SDS011;11489;50.834;6.752;2024-03-08T02:08:59;32.70;;;18.87;;
22644;SDS011;11489;50.834;6.752;2024-03-08T02:11:26;35.83;;;18.50;;
22644;SDS011;11489;50.834;6.752;2024-03-08T02:13:52;36.93;;;18.80;;
22644;SDS011;11489;50.834;6.752;2024-03-08T02:16:21;34.33;;;18.30;;
22644;SDS011;11489;50.834;6.752;2024-03-08T02:18:47;33.43;;;18.37;;
22644;SDS011;11489;50.834;6.752;2024-03-08T02:21:13;38.57;;;19.37;;
22644;SDS011;11489;50.834;6.752;2024-03-08T02:23:43;35.23;;;19.07;;
22644;SDS011;11489;50.834;6.752;2024-03-08T02:26:09;41.13;;;20.27;;
22644;SDS011;11489;50.834;6.752;2024-03-08T02:28:35;35.53;;;18.73;;
22644;SDS011;11489;50.834;6.752;2024-03-08T02:31:01;37.93;;;19.40;;
22644;SDS011;11489;50.834;6.752;2024-03-08T02:33:27;38.67;;;19.60;;
22644;SDS011;11489;50.834;6.752;2024-03-08T02:35:54;37.40;;;19.03;;
22644;SDS011;11489;50.834;6.752;2024-03-08T02:38:21;35.93;;;18.47;;
22644;SDS011;11489;50.834;6.752;2024-03-08T02:40:48;38.63;;;19.37;;
22644;SDS011;11489;50.834;6.752;2024-03-08T02:43:15;37.60;;;19.23;;
22644;SDS011;11489;50.834;6.752;2024-03-08T02:45:45;35.60;;;18.80;;
22644;SDS011;11489;50.834;6.752;2024-03-08T02:48:11;36.80;;;17.70;;
22644;SDS011;11489;50.834;6.752;2024-03-08T02:50:38;35.00;;;17.93;;
22644;SDS011;11489;50.834;6.752;2024-03-08T02:53:07;34.23;;;18.73;;
22644;SDS011;11489;50.834;6.752;2024-03-08T02:55:33;39.47;;;19.23;;
22644;SDS011;11489;50.834;6.752;2024-03-08T02:58:01;40.57;;;19.30;;
22644;SDS011;11489;50.834;6.752;2024-03-08T03:00:29;35.80;;;18.37;;
22644;SDS011;11489;50.834;6.752;2024-03-08T03:02:56;36.73;;;19.37;;
22644;SDS011;11489;50.834;6.752;2024-03-08T03:05:22;43.87;;;18.63;;
22644;SDS011;11489;50.834;6.752;2024-03-08T03:07:49;35.87;;;18.83;;
22644;SDS011;11489;50.834;6.752;2024-03-08T03:10:19;38.33;;;18.63;;
22644;SDS011;11489;50.834;6.752;2024-03-08T03:12:46;37.47;;;19.10;;
22644;SDS011;11489;50.834;6.752;2024-03-08T03:15:13;34.93;;;16.97;;
22644;SDS011;11489;50.834;6.752;2024-03-08T03:17:39;34.03;;;18.27;;
22644;SDS011;11489;50.834;6.752;2024-03-08T03:20:06;34.27;;;18.30;;
22644;SDS011;11489;50.834;6.752;2024-03-08T03:22:38;35.10;;;17.50;;
22644;SDS011;11489;50.834;6.752;2024-03-08T03:25:06;37.70;;;18.93;;
22644;SDS011;11489;50.834;6.752;2024-03-08T03:27:32;36.13;;;18.63;;
22644;SDS011;11489;50.834;6.752;2024-03-08T03:29:58;33.87;;;17.83;;
22644;SDS011;11489;50.834;6.752;2024-03-08T03:32:44;39.23;;;16.77;;
22644;SDS011;11489;50.834;6.752;2024-03-08T03:35:12;35.70;;;17.47;;
22644;SDS011;11489;50.834;6.752;2024-03-08T03:37:41;31.60;;;17.40;;
22644;SDS011;11489;50.834;6.752;2024-03-08T03:40:16;33.97;;;17.50;;
22644;SDS011;11489;50.834;6.752;2024-03-08T03:42:44;37.97;;;18.73;;
22644;SDS011;11489;50.834;6.752;2024-03-08T03:45:10;34.23;;;17.40;;
22644;SDS011;11489;50.834;6.752;2024-03-08T03:47:36;36.43;;;18.27;;
22644;SDS011;11489;50.834;6.752;2024-03-08T03:50:03;35.07;;;17.90;;
22644;SDS011;11489;50.834;6.752;2024-03-08T03:52:30;34.10;;;17.57;;
22644;SDS011;11489;50.834;6.752;2024-03-08T03:54:56;37.10;;;18.57;;
22644;SDS011;11489;50.834;6.752;2024-03-08T03:57:23;33.37;;;17.40;;
22644;SDS011;11489;50.834;6.752;2024-03-08T03:59:48;33.27;;;17.17;;
22644;SDS011;11489;50.834;6.752;2024-03-08T04:02:16;37.23;;;18.03;;
22644;SDS011;11489;50.834;6.752;2024-03-08T04:04:42;33.50;;;17.13;;
22644;SDS011;11489;50.834;6.752;2024-03-08T04:07:09;32.27;;;16.27;;
22644;SDS011;11489;50.834;6.752;2024-03-08T04:09:35;35.50;;;17.20;;
22644;SDS011;11489;50.834;6.752;2024-03-08T04:12:00;35.77;;;17.70;;
22644;SDS011;11489;50.834;6.752;2024-03-08T04:14:26;32.10;;;17.13;;
22644;SDS011;11489;50.834;6.752;2024-03-08T04:16:52;34.50;;;17.40;;
22644;SDS011;11489;50.834;6.752;2024-03-08T04:19:18;33.57;;;17.53;;
22644;SDS011;11489;50.834;6.752;2024-03-08T04:21:44;34.97;;;17.97;;
22644;SDS011;11489;50.834;6.752;2024-03-08T04:24:10;32.83;;;17.47;;
22644;SDS011;11489;50.834;6.752;2024-03-08T04:26:35;36.07;;;18.20;;
22644;SDS011;11489;50.834;6.752;2024-03-08T04:29:01;35.80;;;17.40;;
22644;SDS011;11489;50.834;6.752;2024-03-08T04:31:28;36.53;;;18.00;;
22644;SDS011;11489;50.834;6.752;2024-03-08T04:33:56;35.20;;;18.80;;
22644;SDS011;11489;50.834;6.752;2024-03-08T04:36:22;33.97;;;17.97;;
22644;SDS011;11489;50.834;6.752;2024-03-08T04:38:50;37.87;;;18.47;;
22644;SDS011;11489;50.834;6.752;2024-03-08T04:41:16;36.27;;;18.20;;
22644;SDS011;11489;50.834;6.752;2024-03-08T04:43:42;39.07;;;18.23;;
22644;SDS011;11489;50.834;6.752;2024-03-08T04:46:08;34.10;;;17.80;;
22644;SDS011;11489;50.834;6.752;2024-03-08T04:48:34;38.50;;;18.53;;
22644;SDS011;11489;50.834;6.752;2024-03-08T04:51:02;36.57;;;16.33;;
22644;SDS011;11489;50.834;6.752;2024-03-08T04:53:29;35.70;;;17.67;;
22644;SDS011;11489;50.834;6.752;2024-03-08T04:55:57;37.50;;;18.77;;
22644;SDS011;11489;50.834;6.752;2024-03-08T04:58:23;36.07;;;17.50;;
22644;SDS011;11489;50.834;6.752;2024-03-08T05:00:48;34.57;;;17.33;;
22644;SDS011;11489;50.834;6.752;2024-03-08T05:03:15;34.70;;;17.90;;
22644;SDS011;11489;50.834;6.752;2024-03-08T05:05:41;39.97;;;18.73;;
22644;SDS011;11489;50.834;6.752;2024-03-08T05:08:07;36.73;;;18.70;;
22644;SDS011;11489;50.834;6.752;2024-03-08T05:10:32;37.37;;;18.17;;
22644;SDS011;11489;50.834;6.752;2024-03-08T05:12:58;38.00;;;18.33;;
22644;SDS011;11489;50.834;6.752;2024-03-08T05:15:24;38.23;;;19.13;;
22644;SDS011;11489;50.834;6.752;2024-03-08T05:17:49;40.83;;;20.40;;
22644;SDS011;11489;50.834;6.752;2024-03-08T05:20:15;40.37;;;19.63;;
22644;SDS011;11489;50.834;6.752;2024-03-08T05:22:42;38.77;;;19.63;;
22644;SDS011;11489;50.834;6.752;2024-03-08T05:25:08;38.10;;;19.30;;
22644;SDS011;11489;50.834;6.752;2024-03-08T05:27:34;35.93;;;17.80;;
22644;SDS011;11489;50.834;6.752;2024-03-08T05:30:02;35.33;;;18.03;;
22644;SDS011;11489;50.834;6.752;2024-03-08T05:32:29;35.17;;;18.13;;
22644;SDS011;11489;50.834;6.752;2024-03-08T05:34:55;41.53;;;18.03;;
22644;SDS011;11489;50.834;6.752;2024-03-08T05:37:20;38.33;;;19.13;;
22644;SDS011;11489;50.834;6.752;2024-03-08T05:39:47;34.00;;;17.13;;
22644;SDS011;11489;50.834;6.752;2024-03-08T05:42:12;34.23;;;17.83;;
22644;SDS011;11489;50.834;6.752;2024-03-08T05:44:38;38.90;;;18.53;;
22644;SDS011;11489;50.834;6.752;2024-03-08T05:47:05;36.30;;;18.93;;
22644;SDS011;11489;50.834;6.752;2024-03-08T05:49:32;36.60;;;18.43;;
22644;SDS011;11489;50.834;6.752;2024-03-08T05:51:59;36.57;;;18.27;;
22644;SDS011;11489;50.834;6.752;2024-03-08T05:54:25;33.90;;;17.33;;
22644;SDS011;11489;50.834;6.752;2024-03-08T05:56:52;41.53;;;18.67;;
22644;SDS011;11489;50.834;6.752;2024-03-08T05:59:19;39.57;;;18.27;;
22644;SDS011;11489;50.834;6.752;2024-03-08T06:01:45;40.47;;;19.13;;
22644;SDS011;11489;50.834;6.752;2024-03-08T06:04:12;36.40;;;19.10;;
22644;SDS011;11489;50.834;6.752;2024-03-08T06:06:37;37.53;;;18.87;;
22644;SDS011;11489;50.834;6.752;2024-03-08T06:09:03;36.00;;;17.60;;
22644;SDS011;11489;50.834;6.752;2024-03-08T06:11:36;38.47;;;18.60;;
22644;SDS011;11489;50.834;6.752;2024-03-08T06:14:03;39.40;;;18.37;;
22644;SDS011;11489;50.834;6.752;2024-03-08T06:16:28;36.50;;;18.13;;
22644;SDS011;11489;50.834;6.752;2024-03-08T06:18:57;38.70;;;18.30;;
22644;SDS011;11489;50.834;6.752;2024-03-08T06:21:23;37.80;;;18.70;;
22644;SDS011;11489;50.834;6.752;2024-03-08T06:23:52;38.50;;;19.73;;
22644;SDS011;11489;50.834;6.752;2024-03-08T06:26:20;40.53;;;18.20;;
22644;SDS011;11489;50.834;6.752;2024-03-08T06:28:47;41.97;;;20.47;;
22644;SDS011;11489;50.834;6.752;2024-03-08T06:31:13;40.53;;;18.60;;
22644;SDS011;11489;50.834;6.752;2024-03-08T06:33:39;39.00;;;20.07;;
22644;SDS011;11489;50.834;6.752;2024-03-08T06:36:05;40.37;;;20.87;;
22644;SDS011;11489;50.834;6.752;2024-03-08T06:38:32;42.47;;;20.13;;
22644;SDS011;11489;50.834;6.752;2024-03-08T06:40:57;45.63;;;21.60;;
22644;SDS011;11489;50.834;6.752;2024-03-08T06:43:23;50.30;;;22.67;;
22644;SDS011;11489;50.834;6.752;2024-03-08T06:45:55;43.47;;;21.00;;
22644;SDS011;11489;50.834;6.752;2024-03-08T06:48:20;44.37;;;21.50;;
22644;SDS011;11489;50.834;6.752;2024-03-08T06:50:46;42.63;;;21.47;;
22644;SDS011;11489;50.834;6.752;2024-03-08T06:53:13;42.40;;;21.83;;
22644;SDS011;11489;50.834;6.752;2024-03-08T06:55:39;40.70;;;20.13;;
22644;SDS011;11489;50.834;6.752;2024-03-08T06:58:05;44.13;;;20.70;;
22644;SDS011;11489;50.834;6.752;2024-03-08T07:00:32;41.23;;;20.07;;
22644;SDS011;11489;50.834;6.752;2024-03-08T07:02:58;41.87;;;20.17;;
22644;SDS011;11489;50.834;6.752;2024-03-08T07:05:27;43.70;;;21.23;;
22644;SDS011;11489;50.834;6.752;2024-03-08T07:07:54;40.57;;;20.73;;
22644;SDS011;11489;50.834;6.752;2024-03-08T07:10:23;38.80;;;19.70;;
22644;SDS011;11489;50.834;6.752;2024-03-08T07:12:51;40.00;;;20.50;;
22644;SDS011;11489;50.834;6.752;2024-03-08T07:15:20;42.70;;;19.77;;
22644;SDS011;11489;50.834;6.752;2024-03-08T07:17:46;46.47;;;20.83;;
22644;SDS011;11489;50.834;6.752;2024-03-08T07:20:12;39.67;;;19.80;;
22644;SDS011;11489;50.834;6.752;2024-03-08T07:22:40;43.30;;;20.63;;
22644;SDS011;11489;50.834;6.752;2024-03-08T07:25:06;42.87;;;20.83;;
22644;SDS011;11489;50.834;6.752;2024-03-08T07:27:33;41.30;;;20.27;;
22644;SDS011;11489;50.834;6.752;2024-03-08T07:30:05;42.80;;;20.97;;
22644;SDS011;11489;50.834;6.752;2024-03-08T07:32:31;38.80;;;20.07;;
22644;SDS011;11489;50.834;6.752;2024-03-08T07:34:57;43.83;;;21.23;;
22644;SDS011;11489;50.834;6.752;2024-03-08T07:37:23;41.50;;;21.83;;
22644;SDS011;11489;50.834;6.752;2024-03-08T07:39:49;43.27;;;21.53;;
22644;SDS011;11489;50.834;6.752;2024-03-08T07:42:15;41.40;;;21.00;;
22644;SDS011;11489;50.834;6.752;2024-03-08T07:44:42;43.30;;;21.53;;
22644;SDS011;11489;50.834;6.752;2024-03-08T07:47:08;43.77;;;21.97;;
22644;SDS011;11489;50.834;6.752;2024-03-08T07:49:37;43.07;;;21.90;;
22644;SDS011;11489;50.834;6.752;2024-03-08T07:52:03;43.53;;;21.70;;
22644;SDS011;11489;50.834;6.752;2024-03-08T07:54:30;41.27;;;21.10;;
22644;SDS011;11489;50.834;6.752;2024-03-08T07:56:56;44.30;;;21.90;;
22644;SDS011;11489;50.834;6.752;2024-03-08T07:59:21;42.70;;;21.10;;
22644;SDS011;11489;50.834;6.752;2024-03-08T08:01:47;38.13;;;20.27;;
22644;SDS011;11489;50.834;6.752;2024-03-08T08:04:13;39.67;;;20.57;;
22644;SDS011;11489;50.834;6.752;2024-03-08T08:06:43;38.85;;;20.77;;
22644;SDS011;11489;50.834;6.752;2024-03-08T08:09:09;39.85;;;20.58;;
22644;SDS011;11489;50.834;6.752;2024-03-08T08:11:41;39.65;;;20.10;;
22644;SDS011;11489;50.834;6.752;2024-03-08T08:14:08;43.40;;;20.38;;
22644;SDS011;11489;50.834;6.752;2024-03-08T08:16:35;43.33;;;21.27;;
22644;SDS011;11489;50.834;6.752;2024-03-08T08:19:02;44.40;;;21.73;;
22644;SDS011;11489;50.834;6.752;2024-03-08T08:21:35;39.63;;;21.80;;
22644;SDS011;11489;50.834;6.752;2024-03-08T08:24:03;41.60;;;22.25;;
22644;SDS011;11489;50.834;6.752;2024-03-08T08:26:29;43.25;;;21.42;;
22644;SDS011;11489;50.834;6.752;2024-03-08T08:28:55;38.97;;;21.73;;
22644;SDS011;11489;50.834;6.752;2024-03-08T08:31:21;40.03;;;20.27;;
22644;SDS011;11489;50.834;6.752;2024-03-08T08:33:47;43.58;;;21.60;;
22644;SDS011;11489;50.834;6.752;2024-03-08T08:36:17;42.22;;;21.38;;
22644;SDS011;11489;50.834;6.752;2024-03-08T08:38:43;40.42;;;20.30;;
22644;SDS011;11489;50.834;6.752;2024-03-08T08:41:12;43.30;;;21.40;;
22644;SDS011;11489;50.834;6.752;2024-03-08T08:43:39;39.17;;;20.83;;
22644;SDS011;11489;50.834;6.752;2024-03-08T08:46:04;40.53;;;21.15;;
22644;SDS011;11489;50.834;6.752;2024-03-08T08:48:30;40.28;;;21.95;;
22644;SDS011;11489;50.834;6.752;2024-03-08T08:50:56;39.75;;;20.92;;
22644;SDS011;11489;50.834;6.752;2024-03-08T08:53:22;43.15;;;21.58;;
22644;SDS011;11489;50.834;6.752;2024-03-08T08:55:47;43.25;;;22.38;;
22644;SDS011;11489;50.834;6.752;2024-03-08T08:58:13;38.65;;;20.83;;
22644;SDS011;11489;50.834;6.752;2024-03-08T09:00:39;38.45;;;21.52;;
22644;SDS011;11489;50.834;6.752;2024-03-08T09:03:05;40.00;;;20.52;;
22644;SDS011;11489;50.834;6.752;2024-03-08T09:05:32;39.35;;;21.00;;
22644;SDS011;11489;50.834;6.752;2024-03-08T09:07:59;42.70;;;20.42;;
22644;SDS011;11489;50.834;6.752;2024-03-08T09:10:26;38.08;;;21.55;;
22644;SDS011;11489;50.834;6.752;2024-03-08T09:12:53;38.38;;;21.25;;
22644;SDS011;11489;50.834;6.752;2024-03-08T09:15:18;42.47;;;21.23;;
22644;SDS011;11489;50.834;6.752;2024-03-08T09:17:46;35.67;;;20.00;;
22644;SDS011;11489;50.834;6.752;2024-03-08T09:20:13;40.67;;;21.83;;
22644;SDS011;11489;50.834;6.752;2024-03-08T09:22:43;40.22;;;20.83;;
22644;SDS011;11489;50.834;6.752;2024-03-08T09:25:09;40.58;;;22.38;;
22644;SDS011;11489;50.834;6.752;2024-03-08T09:27:35;39.92;;;22.02;;
22644;SDS011;11489;50.834;6.752;2024-03-08T09:30:01;39.47;;;20.88;;
22644;SDS011;11489;50.834;6.752;2024-03-08T09:32:27;36.90;;;21.55;;
22644;SDS011;11489;50.834;6.752;2024-03-08T09:34:53;36.38;;;20.85;;
22644;SDS011;11489;50.834;6.752;2024-03-08T09:37:18;37.80;;;21.38;;
22644;SDS011;11489;50.834;6.752;2024-03-08T09:39:44;37.58;;;20.67;;
22644;SDS011;11489;50.834;6.752;2024-03-08T09:42:10;34.15;;;20.25;;
22644;SDS011;11489;50.834;6.752;2024-03-08T09:44:43;34.78;;;20.30;;
22644;SDS011;11489;50.834;6.752;2024-03-08T09:47:15;33.97;;;19.13;;
22644;SDS011;11489;50.834;6.752;2024-03-08T09:49:43;31.13;;;17.25;;
22644;SDS011;11489;50.834;6.752;2024-03-08T09:52:08;30.13;;;17.35;;
22644;SDS011;11489;50.834;6.752;2024-03-08T09:54:35;29.85;;;16.90;;
22644;SDS011;11489;50.834;6.752;2024-03-08T09:57:03;31.73;;;17.50;;
22644;SDS011;11489;50.834;6.752;2024-03-08T09:59:29;26.88;;;15.88;;
22644;SDS011;11489;50.834;6.752;2024-03-08T10:02:13;26.30;;;15.98;;
22644;SDS011;11489;50.834;6.752;2024-03-08T10:04:40;24.95;;;16.17;;
22644;SDS011;11489;50.834;6.752;2024-03-08T10:07:07;23.92;;;14.82;;
22644;SDS011;11489;50.834;6.752;2024-03-08T10:09:33;24.48;;;15.15;;
22644;SDS011;11489;50.834;6.752;2024-03-08T10:11:59;26.40;;;16.00;;
22644;SDS011;11489;50.834;6.752;2024-03-08T10:14:25;25.05;;;15.75;;
22644;SDS011;11489;50.834;6.752;2024-03-08T10:16:54;24.70;;;15.15;;
22644;SDS011;11489;50.834;6.752;2024-03-08T10:19:20;25.02;;;15.43;;
22644;SDS011;11489;50.834;6.752;2024-03-08T10:21:50;26.52;;;15.20;;
22644;SDS011;11489;50.834;6.752;2024-03-08T10:24:18;26.95;;;14.80;;
22644;SDS011;11489;50.834;6.752;2024-03-08T10:26:44;23.23;;;13.98;;
22644;SDS011;11489;50.834;6.752;2024-03-08T10:29:11;22.00;;;13.55;;
22644;SDS011;11489;50.834;6.752;2024-03-08T10:31:44;21.38;;;14.10;;
22644;SDS011;11489;50.834;6.752;2024-03-08T10:34:10;21.70;;;13.80;;
22644;SDS011;11489;50.834;6.752;2024-03-08T10:36:36;22.02;;;13.77;;
22644;SDS011;11489;50.834;6.752;2024-03-08T10:39:03;21.45;;;13.60;;
22644;SDS011;11489;50.834;6.752;2024-03-08T10:41:41;21.13;;;13.50;;
22644;SDS011;11489;50.834;6.752;2024-03-08T10:49:24;19.48;;;12.77;;
22644;SDS011;11489;50.834;6.752;2024-03-08T10:51:55;20.67;;;13.07;;
22644;SDS011;11489;50.834;6.752;2024-03-08T10:54:22;20.83;;;13.20;;
22644;SDS011;11489;50.834;6.752;2024-03-08T10:56:50;21.35;;;13.30;;
22644;SDS011;11489;50.834;6.752;2024-03-08T10:59:17;21.00;;;12.77;;
22644;SDS011;11489;50.834;6.752;2024-03-08T11:01:44;20.17;;;13.15;;
22644;SDS011;11489;50.834;6.752;2024-03-08T11:04:10;18.45;;;12.25;;
22644;SDS011;11489;50.834;6.752;2024-03-08T11:14:51;19.20;;;12.40;;
22644;SDS011;11489;50.834;6.752;2024-03-08T11:18:00;19.38;;;13.23;;
22644;SDS011;11489;50.834;6.752;2024-03-08T11:20:14;19.65;;;12.75;;
22644;SDS011;11489;50.834;6.752;2024-03-08T11:22:42;17.88;;;12.10;;
22644;SDS011;11489;50.834;6.752;2024-03-08T11:33:24;20.23;;;12.90;;
22644;SDS011;11489;50.834;6.752;2024-03-08T11:38:44;18.90;;;12.32;;
22644;SDS011;11489;50.834;6.752;2024-03-08T11:41:17;19.60;;;11.70;;
22644;SDS011;11489;50.834;6.752;2024-03-08T11:43:46;19.40;;;12.25;;
22644;SDS011;11489;50.834;6.752;2024-03-08T11:46:12;18.92;;;12.02;;
22644;SDS011;11489;50.834;6.752;2024-03-08T11:48:40;19.70;;;12.45;;
22644;SDS011;11489;50.834;6.752;2024-03-08T11:51:07;19.80;;;12.13;;
22644;SDS011;11489;50.834;6.752;2024-03-08T11:53:33;17.95;;;12.13;;
22644;SDS011;11489;50.834;6.752;2024-03-08T11:56:10;17.88;;;11.18;;
22644;SDS011;11489;50.834;6.752;2024-03-08T11:58:37;18.70;;;11.80;;
22644;SDS011;11489;50.834;6.752;2024-03-08T12:01:05;18.63;;;12.57;;
22644;SDS011;11489;50.834;6.752;2024-03-08T12:03:41;19.27;;;12.00;;
22644;SDS011;11489;50.834;6.752;2024-03-08T12:06:12;19.33;;;12.32;;
22644;SDS011;11489;50.834;6.752;2024-03-08T12:08:39;18.10;;;12.45;;
22644;SDS011;11489;50.834;6.752;2024-03-08T12:11:04;17.38;;;11.75;;
22644;SDS011;11489;50.834;6.752;2024-03-08T12:13:31;19.58;;;12.60;;
22644;SDS011;11489;50.834;6.752;2024-03-08T12:15:59;18.23;;;11.88;;
22644;SDS011;11489;50.834;6.752;2024-03-08T12:18:35;18.52;;;11.98;;
22644;SDS011;11489;50.834;6.752;2024-03-08T12:21:11;19.08;;;12.55;;
22644;SDS011;11489;50.834;6.752;2024-03-08T12:23:45;19.52;;;11.77;;
22644;SDS011;11489;50.834;6.752;2024-03-08T12:26:23;17.15;;;11.70;;
22644;SDS011;11489;50.834;6.752;2024-03-08T12:28:51;18.65;;;11.80;;
22644;SDS011;11489;50.834;6.752;2024-03-08T12:31:17;17.35;;;11.73;;
22644;SDS011;11489;50.834;6.752;2024-03-08T12:36:24;17.98;;;11.45;;
22644;SDS011;11489;50.834;6.752;2024-03-08T12:38:50;15.05;;;10.73;;
22644;SDS011;11489;50.834;6.752;2024-03-08T12:41:19;17.67;;;11.00;;
22644;SDS011;11489;50.834;6.752;2024-03-08T12:43:46;17.40;;;11.18;;
22644;SDS011;11489;50.834;6.752;2024-03-08T12:46:16;17.05;;;11.13;;
22644;SDS011;11489;50.834;6.752;2024-03-08T12:48:45;16.30;;;10.52;;
22644;SDS011;11489;50.834;6.752;2024-03-08T12:51:15;16.70;;;10.68;;
22644;SDS011;11489;50.834;6.752;2024-03-08T12:53:43;17.75;;;11.18;;
22644;SDS011;11489;50.834;6.752;2024-03-08T12:56:31;18.38;;;11.55;;
22644;SDS011;11489;50.834;6.752;2024-03-08T12:58:59;16.27;;;10.95;;
22644;SDS011;11489;50.834;6.752;2024-03-08T13:01:25;18.15;;;11.48;;
22644;SDS011;11489;50.834;6.752;2024-03-08T13:03:56;17.95;;;11.50;;
22644;SDS011;11489;50.834;6.752;2024-03-08T13:06:23;17.85;;;12.27;;
22644;SDS011;11489;50.834;6.752;2024-03-08T13:08:50;17.05;;;10.98;;
22644;SDS011;11489;50.834;6.752;2024-03-08T13:11:20;17.35;;;11.80;;
22644;SDS011;11489;50.834;6.752;2024-03-08T13:13:48;18.13;;;10.55;;
22644;SDS011;11489;50.834;6.752;2024-03-08T13:16:15;19.45;;;12.18;;
22644;SDS011;11489;50.834;6.752;2024-03-08T13:18:42;16.13;;;11.02;;
22644;SDS011;11489;50.834;6.752;2024-03-08T13:21:08;19.08;;;11.27;;
22644;SDS011;11489;50.834;6.752;2024-03-08T13:23:36;16.95;;;11.18;;
22644;SDS011;11489;50.834;6.752;2024-03-08T13:26:05;18.08;;;11.38;;
22644;SDS011;11489;50.834;6.752;2024-03-08T13:28:32;17.70;;;11.35;;
22644;SDS011;11489;50.834;6.752;2024-03-08T13:31:03;17.13;;;10.65;;
22644;SDS011;11489;50.834;6.752;2024-03-08T13:33:32;17.17;;;10.80;;
22644;SDS011;11489;50.834;6.752;2024-03-08T13:36:01;15.70;;;10.93;;
22644;SDS011;11489;50.834;6.752;2024-03-08T13:38:28;16.08;;;10.68;;
22644;SDS011;11489;50.834;6.752;2024-03-08T13:40:54;16.42;;;10.95;;
22644;SDS011;11489;50.834;6.752;2024-03-08T13:43:20;14.93;;;10.48;;
22644;SDS011;11489;50.834;6.752;2024-03-08T13:45:45;15.80;;;11.18;;
22644;SDS011;11489;50.834;6.752;2024-03-08T13:48:11;18.08;;;12.07;;
22644;SDS011;11489;50.834;6.752;2024-03-08T13:50:38;18.13;;;11.27;;
22644;SDS011;11489;50.834;6.752;2024-03-08T13:53:04;19.85;;;11.00;;
22644;SDS011;11489;50.834;6.752;2024-03-08T13:55:30;16.25;;;11.02;;
22644;SDS011;11489;50.834;6.752;2024-03-08T13:57:56;17.08;;;11.35;;
22644;SDS011;11489;50.834;6.752;2024-03-08T14:00:22;17.17;;;11.38;;
22644;SDS011;11489;50.834;6.752;2024-03-08T14:02:50;17.52;;;11.15;;
22644;SDS011;11489;50.834;6.752;2024-03-08T14:05:16;16.13;;;10.48;;
22644;SDS011;11489;50.834;6.752;2024-03-08T14:07:45;18.90;;;11.50;;
22644;SDS011;11489;50.834;6.752;2024-03-08T14:10:14;19.15;;;11.13;;
22644;SDS011;11489;50.834;6.752;2024-03-08T14:12:41;17.42;;;10.75;;
22644;SDS011;11489;50.834;6.752;2024-03-08T14:15:08;18.17;;;11.40;;
22644;SDS011;11489;50.834;6.752;2024-03-08T14:17:36;15.18;;;10.45;;
22644;SDS011;11489;50.834;6.752;2024-03-08T14:20:02;16.60;;;10.45;;
22644;SDS011;11489;50.834;6.752;2024-03-08T14:22:29;15.10;;;9.13;;
22644;SDS011;11489;50.834;6.752;2024-03-08T14:24:56;17.00;;;10.75;;
22644;SDS011;11489;50.834;6.752;2024-03-08T14:27:22;14.80;;;9.85;;
22644;SDS011;11489;50.834;6.752;2024-03-08T14:29:48;14.27;;;9.77;;
22644;SDS011;11489;50.834;6.752;2024-03-08T14:32:14;16.05;;;10.52;;
22644;SDS011;11489;50.834;6.752;2024-03-08T14:34:40;18.55;;;10.68;;
22644;SDS011;11489;50.834;6.752;2024-03-08T14:37:06;16.02;;;9.88;;
22644;SDS011;11489;50.834;6.752;2024-03-08T14:39:37;15.98;;;10.23;;
22644;SDS011;11489;50.834;6.752;2024-03-08T14:42:03;15.52;;;9.85;;
22644;SDS011;11489;50.834;6.752;2024-03-08T14:44:31;15.63;;;9.73;;
22644;SDS011;11489;50.834;6.752;2024-03-08T14:47:00;13.40;;;9.38;;
22644;SDS011;11489;50.834;6.752;2024-03-08T14:49:26;14.93;;;9.60;;